»·PEaware :: N1718G KJTC-KIGM

N1718G :: KJTC-KIGM

FLIGHT INFORMATION

Flight Status: Arrived
Operator: Privately registered:
United States
More flights under this callsign
Pilot: Spencer M. (27733)
Aircraft: ECLIPSE 500
(EA50)
More flights by this aircraft type
Origin: KJTC Springerville Municipal
United States
Destination: KIGM Kingman
United States
More flights between these airports :: More routes between these airports
Route:
File this flight plan on PilotEdge
Remarks:
Altitude:
(Current/Filed)
16,500ft
Speed:
(Current/Filed)
300kts
Departed: 04-Oct-20 06:48 PM
Arrived: 04-Oct-20 07:50 PM
Distance/Time
Traveled:
238nm/1:01
Distance/Time
To Go:
Arrived

Flight Plot

Page will automatically refresh every two minutes.

Flight plan parsing failed; only flown route is shown


Map Options




Map Legend


Flown Route
Filed Route
Departure Airport
Arrival Airport
Navaid (VOR, NDB)
Fix

Horizontal Profiles

Position Reports

Time Latitude Longitude Heading Altitude Ground
Speed
04-Oct-20 18:38 34.131221 -109.308206 226 7053ft 0kts
04-Oct-20 18:39 34.131221 -109.308206 226 7053ft 0kts
04-Oct-20 18:40 34.131221 -109.308206 226 7053ft 0kts
04-Oct-20 18:41 34.131221 -109.308206 226 7053ft 0kts
04-Oct-20 18:42 34.131221 -109.308206 226 7053ft 0kts
04-Oct-20 18:44 34.131789 -109.308323 44 7053ft 6kts
04-Oct-20 18:45 34.133889 -109.305868 43 7053ft 12kts
04-Oct-20 18:46 34.135802 -109.303790 357 7053ft 0kts
04-Oct-20 18:47 34.136001 -109.304602 224 7053ft 16kts
04-Oct-20 18:48 34.116985 -109.327104 223 7502ft 141kts
04-Oct-20 18:49 34.109132 -109.374307 295 9305ft 170kts
04-Oct-20 18:50 34.132865 -109.429798 295 10913ft 199kts
04-Oct-20 18:51 34.157854 -109.491347 289 12512ft 208kts
04-Oct-20 18:52 34.180694 -109.556028 292 14003ft 211kts
04-Oct-20 18:53 34.204763 -109.620347 293 15491ft 209kts
04-Oct-20 18:54 34.229219 -109.684627 293 16450ft 227kts
04-Oct-20 18:55 34.258485 -109.761195 293 16461ft 270kts
04-Oct-20 18:56 34.291407 -109.847343 293 16502ft 293kts
04-Oct-20 18:57 34.326417 -109.939165 293 16508ft 306kts
04-Oct-20 18:58 34.362810 -110.034889 293 16495ft 318kts
04-Oct-20 18:59 34.399996 -110.132986 293 16472ft 323kts
04-Oct-20 19:00 34.437587 -110.232454 293 16473ft 325kts
04-Oct-20 19:00 34.468886 -110.315505 293 16508ft 326kts
04-Oct-20 19:02 34.512760 -110.432285 293 16503ft 327kts
04-Oct-20 19:02 34.543970 -110.515606 293 16474ft 324kts
04-Oct-20 19:03 34.580958 -110.614638 293 16493ft 318kts
04-Oct-20 19:05 34.623183 -110.728064 293 16518ft 315kts
04-Oct-20 19:05 34.653137 -110.808766 293 16502ft 315kts
04-Oct-20 19:06 34.689074 -110.905878 293 16501ft 315kts
04-Oct-20 19:08 34.730873 -111.019219 293 16499ft 315kts
04-Oct-20 19:08 34.760659 -111.100190 293 16499ft 316kts
04-Oct-20 19:09 34.796522 -111.197922 293 16522ft 317kts
04-Oct-20 19:10 34.832388 -111.295993 293 16551ft 317kts
04-Oct-20 19:11 34.868190 -111.394196 293 16489ft 317kts
04-Oct-20 19:12 34.903578 -111.491553 293 15987ft 314kts
04-Oct-20 19:13 34.938714 -111.588517 293 15480ft 311kts
04-Oct-20 19:14 34.973434 -111.684627 293 14976ft 308kts
04-Oct-20 19:15 35.008577 -111.782201 292 14535ft 322kts
04-Oct-20 19:16 35.044631 -111.882615 292 14508ft 324kts
04-Oct-20 19:17 35.080645 -111.983287 292 14280ft 324kts
04-Oct-20 19:18 35.116557 -112.083969 292 13678ft 322kts
04-Oct-20 19:19 35.152244 -112.184330 292 13076ft 322kts
04-Oct-20 19:20 35.187746 -112.284487 292 12472ft 321kts
04-Oct-20 19:21 35.223156 -112.384702 292 11930ft 319kts
04-Oct-20 19:22 35.258208 -112.484191 292 11439ft 318kts
04-Oct-20 19:23 35.293857 -112.582951 293 11002ft 317kts
04-Oct-20 19:24 35.329619 -112.681479 292 10645ft 315kts
04-Oct-20 19:25 35.365098 -112.779837 291 10628ft 315kts
04-Oct-20 19:26 35.399550 -112.878376 291 10500ft 309kts
04-Oct-20 19:27 35.433499 -112.973910 292 10309ft 304kts
04-Oct-20 19:28 35.465766 -113.064130 292 9499ft 278kts
04-Oct-20 19:29 35.496409 -113.149410 292 8695ft 269kts
04-Oct-20 19:30 35.525474 -113.232808 291 8127ft 258kts
04-Oct-20 19:31 35.551982 -113.309358 291 8279ft 227kts
04-Oct-20 19:32 35.575496 -113.376361 291 8279ft 204kts
04-Oct-20 19:33 35.597327 -113.438369 291 8288ft 191kts
04-Oct-20 19:34 35.616353 -113.498043 287 8289ft 185kts
04-Oct-20 19:35 35.627783 -113.557902 242 8294ft 181kts
04-Oct-20 19:36 35.595918 -113.605235 238 8289ft 175kts
04-Oct-20 19:37 35.571727 -113.655196 241 8289ft 165kts
04-Oct-20 19:38 35.549550 -113.703501 241 8290ft 159kts
04-Oct-20 19:39 35.528723 -113.750655 242 8290ft 155kts
04-Oct-20 19:40 35.506949 -113.795960 214 8214ft 158kts
04-Oct-20 19:41 35.462893 -113.814390 200 7407ft 173kts
04-Oct-20 19:42 35.418977 -113.838757 209 6453ft 171kts
04-Oct-20 19:43 35.379224 -113.865220 208 5497ft 142kts
04-Oct-20 19:44 35.348109 -113.884538 206 4574ft 109kts
04-Oct-20 19:45 35.322340 -113.898437 203 4627ft 99kts
04-Oct-20 19:46 35.295192 -113.905930 192 4452ft 97kts
04-Oct-20 19:47 35.273048 -113.921906 222 3726ft 93kts
04-Oct-20 19:48 35.256318 -113.942109 224 3452ft 48kts
04-Oct-20 19:49 35.252471 -113.948245 327 3452ft 13kts
04-Oct-20 19:50 35.255524 -113.946914 32 3452ft 0kts

Navigation Log

Ident Type
Flight plan parsing failed, navigation log unavailable